Time;durP1;ratioP1;P1;durP2;ratioP2;P2;SDS_P1;SDS_P2;PMS_P1;PMS_P2;Temp;Humidity;BMP_temperature;BMP_pressure;BME280_temperature;BME280_humidity;BME280_pressure;Samples;Min_cycle;Max_cycle;Signal;HPM_P1;HPM_P2
2023/07/11 00:00:20;;;;;;;8.48;1.75;;;18.40;98.30;;;;;;5010583;28;20053;-69
2023/07/11 00:02:48;;;;;;;10.07;2.00;;;18.40;98.50;;;;;;4971163;28;260154;-69
2023/07/11 00:05:18;;;;;;;6.93;1.70;;;18.40;98.80;;;;;;5026617;28;20056;-70
2023/07/11 00:07:47;;;;;;;7.28;1.67;;;18.40;98.90;;;;;;4962645;28;213952;-69
2023/07/11 00:10:16;;;;;;;9.18;1.70;;;18.40;99.10;;;;;;5019560;28;20053;-69
2023/07/11 00:12:42;;;;;;;8.35;1.70;;;18.30;99.20;;;;;;4972870;28;215599;-69
2023/07/11 00:15:10;;;;;;;6.88;1.70;;;18.40;99.30;;;;;;5009319;28;20069;-70
2023/07/11 00:17:37;;;;;;;9.75;1.70;;;18.30;99.40;;;;;;4955895;28;213574;-68
2023/07/11 00:20:08;;;;;;;6.65;1.60;;;18.30;99.40;;;;;;5017398;28;20058;-70
2023/07/11 00:22:34;;;;;;;10.32;1.92;;;18.30;99.40;;;;;;4964543;28;212199;-69
2023/07/11 00:25:01;;;;;;;6.60;1.70;;;18.30;99.50;;;;;;5020833;28;20053;-69
2023/07/11 00:27:28;;;;;;;7.10;1.60;;;18.30;99.70;;;;;;4974604;28;207420;-70
2023/07/11 00:29:54;;;;;;;6.93;1.65;;;18.30;99.70;;;;;;5018535;28;20050;-70
2023/07/11 00:32:21;;;;;;;10.73;1.95;;;18.30;99.80;;;;;;4965974;28;217781;-68
2023/07/11 00:34:47;;;;;;;10.93;1.90;;;18.20;99.90;;;;;;5026758;28;20057;-70
2023/07/11 00:37:14;;;;;;;10.00;1.80;;;18.20;99.90;;;;;;4968944;28;206605;-68
2023/07/11 00:39:43;;;;;;;7.63;1.70;;;18.30;99.90;;;;;;5031476;28;20045;-68
2023/07/11 00:42:12;;;;;;;7.28;1.55;;;18.20;99.90;;;;;;4964794;28;221270;-68
2023/07/11 00:45:01;;;;;;;7.63;2.03;;;18.10;99.90;;;;;;5014387;28;20829;-69
2023/07/11 00:47:28;;;;;;;7.15;1.73;;;18.10;99.90;;;;;;4967514;28;241962;-69
2023/07/11 00:50:05;;;;;;;6.85;1.73;;;18.10;99.90;;;;;;5034665;28;20060;-69
2023/07/11 00:52:35;;;;;;;9.07;1.73;;;18.00;99.90;;;;;;4970389;28;217720;-70
2023/07/11 00:55:07;;;;;;;8.38;1.85;;;17.90;99.90;;;;;;5014057;28;20061;-68
2023/07/11 00:57:37;;;;;;;8.73;1.90;;;17.90;99.90;;;;;;4943238;28;216638;-69
2023/07/11 01:00:05;;;;;;;11.13;2.00;;;17.80;99.90;;;;;;5016209;28;20049;-68
2023/07/11 01:02:32;;;;;;;10.52;2.20;;;17.80;99.90;;;;;;4977973;28;213166;-70
2023/07/11 01:05:00;;;;;;;10.15;2.00;;;17.80;99.90;;;;;;5015420;28;20073;-69
2023/07/11 01:07:35;;;;;;;9.45;2.10;;;17.70;99.90;;;;;;4950359;28;210199;-69
2023/07/11 01:10:02;;;;;;;8.52;2.20;;;17.60;99.90;;;;;;5018604;28;20525;-69
2023/07/11 01:12:28;;;;;;;7.68;1.88;;;17.60;99.90;;;;;;4961705;28;210946;-68
2023/07/11 01:14:55;;;;;;;12.85;2.10;;;17.50;99.90;;;;;;5022562;28;20056;-70
2023/07/11 01:17:30;;;;;;;7.28;1.80;;;17.50;99.90;;;;;;4966310;28;206577;-69
2023/07/11 01:19:59;;;;;;;9.10;2.10;;;17.40;99.90;;;;;;5009136;28;20506;-69
2023/07/11 01:22:28;;;;;;;6.70;1.70;;;17.40;99.90;;;;;;4970635;28;219459;-69
2023/07/11 01:25:00;;;;;;;9.32;2.10;;;17.40;99.90;;;;;;5020359;28;20034;-69
2023/07/11 01:27:27;;;;;;;9.27;1.80;;;17.30;99.90;;;;;;4962474;28;214893;-69
2023/07/11 01:29:53;;;;;;;9.95;1.95;;;17.30;99.90;;;;;;5018033;28;20084;-69
2023/07/11 01:32:21;;;;;;;8.95;2.00;;;17.30;99.90;;;;;;4968165;28;217331;-69
2023/07/11 01:34:48;;;;;;;6.70;1.65;;;17.20;99.90;;;;;;5019842;28;20058;-70
2023/07/11 01:37:14;;;;;;;9.73;2.00;;;17.30;99.90;;;;;;4962630;28;230160;-71
2023/07/11 01:39:40;;;;;;;9.00;1.58;;;17.30;99.90;;;;;;5021373;28;20060;-69
2023/07/11 01:42:07;;;;;;;6.95;1.60;;;17.30;99.90;;;;;;4974106;28;211265;-69
2023/07/11 01:44:33;;;;;;;11.15;1.98;;;17.30;99.90;;;;;;5019295;28;20057;-68
2023/07/11 01:47:02;;;;;;;7.90;1.70;;;17.30;99.90;;;;;;4965760;28;219886;-69
2023/07/11 01:49:28;;;;;;;8.25;1.90;;;17.30;99.90;;;;;;5004627;28;20053;-68
2023/07/11 01:52:06;;;;;;;7.88;1.50;;;17.20;99.90;;;;;;4966689;28;212418;-68
2023/07/11 01:54:32;;;;;;;6.78;1.75;;;17.20;99.90;;;;;;5033018;28;20058;-69
2023/07/11 01:57:02;;;;;;;7.88;1.90;;;17.10;99.90;;;;;;4950965;28;233403;-68
2023/07/11 01:59:28;;;;;;;7.03;1.73;;;17.10;99.90;;;;;;5026933;28;20050;-68
2023/07/11 02:01:55;;;;;;;9.90;2.35;;;17.10;99.90;;;;;;4965171;28;284881;-69
2023/07/11 02:04:21;;;;;;;8.48;1.80;;;17.00;99.90;;;;;;5032598;28;20056;-68
2023/07/11 02:06:52;;;;;;;7.90;2.08;;;17.00;99.90;;;;;;4979174;28;210437;-68
2023/07/11 02:09:19;;;;;;;8.32;2.00;;;16.90;99.90;;;;;;5016887;28;20057;-70
2023/07/11 02:11:46;;;;;;;9.07;1.92;;;16.90;99.90;;;;;;4971866;28;215661;-68
2023/07/11 02:14:18;;;;;;;9.32;1.88;;;16.90;99.90;;;;;;5034911;28;20560;-69
2023/07/11 02:16:46;;;;;;;8.93;1.97;;;16.90;99.90;;;;;;4966870;28;219683;-69
2023/07/11 02:19:14;;;;;;;9.55;2.00;;;16.90;99.90;;;;;;5015113;28;20056;-69
2023/07/11 02:21:40;;;;;;;9.25;2.17;;;16.90;99.90;;;;;;4966460;28;224054;-69
2023/07/11 02:24:12;;;;;;;7.50;1.90;;;16.90;99.90;;;;;;5014844;28;20044;-69
2023/07/11 02:26:38;;;;;;;7.45;1.75;;;17.00;99.90;;;;;;4968037;28;208042;-69
2023/07/11 02:29:05;;;;;;;7.80;1.77;;;17.00;99.90;;;;;;5027848;28;20885;-69
2023/07/11 02:31:32;;;;;;;7.13;1.88;;;17.00;99.90;;;;;;5005310;28;207782;-68
2023/07/11 02:33:59;;;;;;;6.47;1.67;;;17.00;99.90;;;;;;4975257;28;20053;-69
2023/07/11 02:36:27;;;;;;;8.95;1.90;;;17.10;99.90;;;;;;5023881;28;20069;-70
2023/07/11 02:39:04;;;;;;;9.73;1.70;;;17.10;99.90;;;;;;4951450;28;269793;-69
2023/07/11 02:41:33;;;;;;;7.40;1.70;;;17.10;99.90;;;;;;4980002;28;225549;-66
2023/07/11 02:43:59;;;;;;;8.10;1.75;;;17.10;99.90;;;;;;5008335;28;20072;-69
2023/07/11 02:46:26;;;;;;;10.48;2.10;;;17.10;99.90;;;;;;5025965;28;20054;-69
2023/07/11 02:48:52;;;;;;;7.57;1.77;;;17.00;99.90;;;;;;4971534;28;208942;-70
2023/07/11 02:51:18;;;;;;;7.38;1.90;;;17.10;99.90;;;;;;5025458;28;20045;-69
2023/07/11 02:53:44;;;;;;;7.20;1.60;;;17.10;99.90;;;;;;4965042;28;214209;-69
2023/07/11 02:56:10;;;;;;;7.82;1.85;;;17.10;99.90;;;;;;5023314;28;20053;-69
2023/07/11 02:58:36;;;;;;;7.40;1.77;;;17.10;99.90;;;;;;4970087;28;234641;-70
2023/07/11 03:01:03;;;;;;;9.90;1.90;;;17.10;99.90;;;;;;5019597;28;20053;-70
2023/07/11 03:03:32;;;;;;;8.55;1.70;;;17.10;99.90;;;;;;4990241;28;222196;-69
2023/07/11 03:05:58;;;;;;;7.63;1.80;;;17.10;99.90;;;;;;5020646;28;20191;-68
2023/07/11 03:08:25;;;;;;;12.15;1.70;;;17.10;99.90;;;;;;4946387;28;214987;-67
2023/07/11 03:10:51;;;;;;;7.15;1.60;;;17.10;99.90;;;;;;5021504;28;20053;-69
2023/07/11 03:13:18;;;;;;;8.05;1.85;;;17.10;99.90;;;;;;4961526;28;218609;-69
2023/07/11 03:15:44;;;;;;;9.30;1.77;;;17.10;99.90;;;;;;5024464;28;20060;-69
2023/07/11 03:18:13;;;;;;;7.88;2.00;;;17.10;99.90;;;;;;4960752;28;210322;-68
2023/07/11 03:20:42;;;;;;;10.60;2.38;;;17.10;99.90;;;;;;5022084;28;20054;-68
2023/07/11 03:23:14;;;;;;;10.18;2.13;;;17.10;99.90;;;;;;4975148;28;102781;-69
2023/07/11 03:25:41;;;;;;;9.25;2.20;;;17.10;99.90;;;;;;5023343;28;20041;-69
2023/07/11 03:28:07;;;;;;;10.90;2.30;;;17.10;99.90;;;;;;4978528;28;216334;-69
2023/07/11 03:30:34;;;;;;;11.95;2.40;;;17.10;99.90;;;;;;5028374;28;20045;-68
2023/07/11 03:33:00;;;;;;;8.85;2.13;;;17.10;99.90;;;;;;4975455;28;206436;-68
2023/07/11 03:35:27;;;;;;;9.23;2.45;;;17.10;99.90;;;;;;5023940;28;20509;-68
2023/07/11 03:37:54;;;;;;;8.55;2.45;;;17.10;99.90;;;;;;4950818;28;208314;-68
2023/07/11 03:40:24;;;;;;;11.07;2.70;;;17.10;99.90;;;;;;5021978;28;20537;-68
2023/07/11 03:42:50;;;;;;;10.35;2.63;;;17.20;99.90;;;;;;4964637;28;207783;-69
2023/07/11 03:45:16;;;;;;;9.45;2.70;;;17.20;99.90;;;;;;5015380;28;20053;-69
2023/07/11 03:47:42;;;;;;;10.52;3.00;;;17.20;99.90;;;;;;4979300;28;224211;-69
2023/07/11 03:50:09;;;;;;;11.07;3.13;;;17.20;99.90;;;;;;5027713;28;20068;-70
2023/07/11 03:52:35;;;;;;;12.05;3.33;;;17.20;99.90;;;;;;4954745;28;239869;-69
2023/07/11 03:55:02;;;;;;;13.68;3.28;;;17.30;99.90;;;;;;5016289;28;20049;-68
2023/07/11 03:57:28;;;;;;;11.00;3.33;;;17.30;99.90;;;;;;4952230;28;276751;-69
2023/07/11 03:59:54;;;;;;;9.80;2.90;;;17.30;99.90;;;;;;5015771;28;20045;-69
2023/07/11 04:02:20;;;;;;;9.93;3.83;;;17.30;99.90;;;;;;4961045;28;225407;-70
2023/07/11 04:04:46;;;;;;;9.68;2.95;;;17.30;99.90;;;;;;5023298;28;20419;-69
2023/07/11 04:07:13;;;;;;;13.60;3.33;;;17.30;99.90;;;;;;4913476;28;1482654;-69
2023/07/11 04:09:40;;;;;;;11.52;3.65;;;17.30;99.90;;;;;;5009713;28;20057;-69
2023/07/11 04:12:07;;;;;;;12.20;3.25;;;17.30;99.90;;;;;;4978613;28;215382;-69
2023/07/11 04:14:34;;;;;;;13.10;3.65;;;17.30;99.90;;;;;;5024846;28;20054;-69
2023/07/11 04:17:00;;;;;;;15.23;3.90;;;17.30;99.90;;;;;;4946498;28;216275;-68
2023/07/11 04:19:26;;;;;;;11.50;3.65;;;17.30;99.90;;;;;;4989325;28;20629;-68
2023/07/11 04:21:52;;;;;;;10.40;3.50;;;17.30;99.90;;;;;;4946559;28;227073;-69
2023/07/11 04:24:18;;;;;;;12.77;3.45;;;17.30;99.90;;;;;;4997618;28;20129;-69
2023/07/11 04:26:47;;;;;;;11.32;3.60;;;17.30;99.90;;;;;;4952253;28;216258;-69
2023/07/11 04:29:13;;;;;;;11.05;3.53;;;17.40;99.90;;;;;;5017331;28;20498;-68
2023/07/11 04:31:39;;;;;;;13.80;4.13;;;17.40;99.90;;;;;;4967327;28;213116;-70
2023/07/11 04:34:05;;;;;;;10.15;3.45;;;17.40;99.90;;;;;;5002001;28;20049;-68
2023/07/11 04:36:32;;;;;;;11.73;4.10;;;17.40;99.90;;;;;;4979216;28;211996;-68
2023/07/11 04:39:04;;;;;;;12.65;4.30;;;17.50;99.90;;;;;;4987175;28;206915;-68
2023/07/11 04:41:30;;;;;;;12.75;4.18;;;17.50;99.90;;;;;;5004279;28;214106;-68
2023/07/11 04:43:56;;;;;;;11.35;3.67;;;17.50;99.90;;;;;;4964535;28;214297;-69
2023/07/11 04:46:22;;;;;;;10.80;3.85;;;17.60;99.90;;;;;;5006933;28;20053;-73
2023/07/11 04:48:48;;;;;;;11.35;3.80;;;17.70;99.90;;;;;;4954691;28;219737;-68
2023/07/11 04:51:15;;;;;;;11.77;4.15;;;17.80;99.90;;;;;;5005165;28;20049;-69
2023/07/11 04:53:41;;;;;;;11.32;4.30;;;17.80;99.90;;;;;;4936748;28;211095;-69
2023/07/11 04:56:11;;;;;;;11.30;4.10;;;17.90;99.90;;;;;;5003034;28;20068;-68
2023/07/11 04:58:38;;;;;;;11.50;4.30;;;18.00;99.90;;;;;;4949258;28;220115;-68
2023/07/11 05:01:10;;;;;;;15.05;4.10;;;18.10;99.90;;;;;;5037413;28;20293;-67
2023/07/11 05:03:37;;;;;;;12.98;4.32;;;18.20;99.90;;;;;;4966233;28;214739;-68
2023/07/11 05:06:04;;;;;;;12.93;4.28;;;18.30;99.90;;;;;;5024967;28;20061;-67
2023/07/11 05:08:31;;;;;;;15.05;4.57;;;18.40;99.90;;;;;;4973490;28;210554;-68
2023/07/11 05:11:07;;;;;;;10.93;4.30;;;18.60;99.90;;;;;;5023329;28;20057;-68
2023/07/11 05:13:34;;;;;;;13.70;4.95;;;18.70;99.90;;;;;;4959568;28;226992;-67
2023/07/11 05:16:02;;;;;;;14.25;4.95;;;18.80;99.90;;;;;;5021793;28;20352;-68
2023/07/11 05:18:29;;;;;;;11.75;4.60;;;18.90;99.90;;;;;;4962862;28;212625;-68
2023/07/11 05:20:59;;;;;;;13.70;5.07;;;19.10;99.90;;;;;;5020099;28;20053;-69
2023/07/11 05:23:27;;;;;;;15.93;4.35;;;19.20;99.90;;;;;;4858163;28;2995816;-69
2023/07/11 05:25:54;;;;;;;12.50;4.50;;;19.20;99.90;;;;;;5020879;28;20061;-68
2023/07/11 05:28:21;;;;;;;13.73;4.82;;;19.30;99.90;;;;;;4965164;28;237072;-68
2023/07/11 05:30:48;;;;;;;13.20;4.38;;;19.30;99.90;;;;;;5018922;28;20064;-67
2023/07/11 05:33:15;;;;;;;12.93;4.43;;;19.30;99.90;;;;;;4962652;28;213990;-68
2023/07/11 05:35:47;;;;;;;13.20;4.70;;;19.20;99.90;;;;;;5022135;28;20482;-68
2023/07/11 05:38:14;;;;;;;11.23;4.50;;;19.30;99.90;;;;;;4942654;28;159598;-68
2023/07/11 05:40:43;;;;;;;12.13;4.18;;;19.40;99.90;;;;;;5003799;28;20507;-67
2023/07/11 05:43:09;;;;;;;11.23;4.18;;;19.60;99.90;;;;;;4951690;28;221286;-68
2023/07/11 05:45:35;;;;;;;13.18;4.53;;;19.70;99.90;;;;;;5005275;28;20503;-69
2023/07/11 05:48:02;;;;;;;12.82;4.30;;;19.80;99.90;;;;;;4960701;28;208826;-68
2023/07/11 05:50:28;;;;;;;12.45;4.32;;;20.00;99.90;;;;;;5008853;28;20046;-68
2023/07/11 05:52:54;;;;;;;14.20;4.18;;;20.10;99.90;;;;;;4948932;28;218778;-67
2023/07/11 05:55:20;;;;;;;12.95;4.35;;;20.40;99.90;;;;;;4990859;28;20065;-69
2023/07/11 05:57:47;;;;;;;12.80;4.20;;;20.60;99.90;;;;;;4915417;28;206746;-69
2023/07/11 06:00:13;;;;;;;12.10;3.75;;;20.90;99.90;;;;;;4998668;28;20054;-67
2023/07/11 06:02:39;;;;;;;14.73;4.10;;;21.10;99.90;;;;;;4952981;28;219057;-68
2023/07/11 06:05:06;;;;;;;12.65;4.22;;;21.20;99.90;;;;;;5022977;28;20494;-68
2023/07/11 06:07:34;;;;;;;11.13;4.20;;;21.40;99.90;;;;;;4952555;28;223192;-68
2023/07/11 06:10:03;;;;;;;11.30;4.07;;;21.70;99.90;;;;;;5018841;28;20041;-70
2023/07/11 06:12:29;;;;;;;13.48;4.47;;;22.00;99.90;;;;;;4970830;28;222090;-68
2023/07/11 06:14:55;;;;;;;14.90;4.57;;;22.10;99.90;;;;;;5028306;28;20049;-67
2023/07/11 06:17:21;;;;;;;11.70;4.22;;;22.10;99.90;;;;;;4966347;28;216501;-68
2023/07/11 06:19:47;;;;;;;12.80;3.95;;;22.10;99.90;;;;;;5020533;28;20062;-67
2023/07/11 06:22:16;;;;;;;11.88;3.85;;;22.40;99.90;;;;;;4978948;28;207007;-68
2023/07/11 06:24:43;;;;;;;12.82;4.68;;;22.60;99.90;;;;;;5032419;28;20060;-68
2023/07/11 06:27:09;;;;;;;12.65;4.13;;;22.60;99.90;;;;;;4973201;28;230954;-68
2023/07/11 06:29:35;;;;;;;13.35;4.10;;;22.60;99.90;;;;;;5033429;28;20062;-69
2023/07/11 06:32:02;;;;;;;11.82;3.88;;;22.70;99.90;;;;;;4967560;28;212993;-69
2023/07/11 06:34:29;;;;;;;15.85;4.22;;;22.70;99.90;;;;;;5030408;28;20042;-68
2023/07/11 06:36:57;;;;;;;12.43;4.00;;;22.80;99.90;;;;;;4963978;28;209299;-68
2023/07/11 06:39:25;;;;;;;10.00;3.97;;;22.80;99.90;;;;;;5019662;28;20718;-67
2023/07/11 06:41:51;;;;;;;12.35;4.15;;;22.70;99.90;;;;;;4970681;28;212775;-68
2023/07/11 06:44:21;;;;;;;10.10;3.85;;;22.70;99.90;;;;;;5013935;28;20049;-67
2023/07/11 06:46:47;;;;;;;12.03;4.00;;;22.90;99.90;;;;;;4967649;28;211091;-67
2023/07/11 06:49:13;;;;;;;10.65;4.00;;;23.30;99.90;;;;;;5030199;28;20065;-68
2023/07/11 06:51:39;;;;;;;12.77;4.00;;;23.50;99.90;;;;;;4965377;28;212950;-69
2023/07/11 06:54:05;;;;;;;11.82;4.07;;;23.40;99.90;;;;;;5032417;28;20053;-67
2023/07/11 06:56:33;;;;;;;13.05;3.90;;;23.40;99.90;;;;;;4996362;28;195913;-68
2023/07/11 06:59:02;;;;;;;13.90;4.68;;;23.60;99.60;;;;;;4992963;28;20057;-68
2023/07/11 07:01:31;;;;;;;11.15;3.95;;;23.60;99.40;;;;;;4985610;28;209836;-68
2023/07/11 07:03:57;;;;;;;13.85;4.30;;;23.80;99.70;;;;;;4992373;28;141721;-67
2023/07/11 07:06:23;;;;;;;11.52;3.90;;;23.90;99.20;;;;;;5007021;28;20057;-66
2023/07/11 07:08:49;;;;;;;12.85;4.20;;;24.00;98.90;;;;;;4991049;28;210725;-68
2023/07/11 07:11:16;;;;;;;13.13;3.83;;;24.10;99.40;;;;;;5024404;28;20040;-68
2023/07/11 07:13:43;;;;;;;10.18;3.97;;;24.20;99.00;;;;;;4968404;28;218495;-68
2023/07/11 07:16:09;;;;;;;10.30;3.95;;;24.30;99.00;;;;;;5025216;28;20060;-68
2023/07/11 07:18:40;;;;;;;11.18;3.83;;;24.50;98.40;;;;;;4973352;28;205484;-68
2023/07/11 07:21:06;;;;;;;12.18;3.83;;;24.80;98.70;;;;;;5025486;28;20068;-67
2023/07/11 07:23:34;;;;;;;11.43;4.10;;;25.20;98.50;;;;;;4967788;28;210704;-68
2023/07/11 07:26:02;;;;;;;17.50;4.35;;;25.50;98.30;;;;;;5041787;28;20057;-69
2023/07/11 07:28:30;;;;;;;14.02;3.88;;;25.70;97.70;;;;;;4978079;28;244276;-67
2023/07/11 07:30:57;;;;;;;11.82;4.00;;;25.90;97.90;;;;;;5025022;28;20050;-67
2023/07/11 07:33:26;;;;;;;11.40;3.53;;;26.20;97.10;;;;;;4955119;28;132085;-68
2023/07/11 07:35:57;;;;;;;12.05;3.90;;;26.20;96.90;;;;;;5008455;28;20079;-67
2023/07/11 07:38:27;;;;;;;11.07;3.47;;;26.10;96.10;;;;;;4970748;28;210954;-67
2023/07/11 07:40:55;;;;;;;11.10;4.43;;;25.80;96.80;;;;;;5024288;28;20041;-68
2023/07/11 07:43:21;;;;;;;11.55;3.72;;;25.80;96.50;;;;;;4974523;28;220869;-68
2023/07/11 07:45:51;;;;;;;13.13;3.53;;;25.90;96.40;;;;;;5023747;28;20056;-68
2023/07/11 07:48:21;;;;;;;12.35;3.42;;;26.10;96.80;;;;;;4980682;28;210461;-68
2023/07/11 07:50:50;;;;;;;12.73;3.42;;;26.20;96.70;;;;;;5030405;28;20045;-69
2023/07/11 07:53:17;;;;;;;12.68;3.63;;;26.10;96.20;;;;;;4978734;28;207564;-68
2023/07/11 07:55:44;;;;;;;10.30;3.25;;;26.00;96.00;;;;;;5021386;28;20073;-67
2023/07/11 07:58:12;;;;;;;12.93;3.40;;;26.00;95.60;;;;;;4938552;28;281265;-67
2023/07/11 08:00:40;;;;;;;10.57;3.50;;;26.10;96.30;;;;;;5020917;28;20786;-67
2023/07/11 08:03:07;;;;;;;11.15;3.50;;;26.50;95.90;;;;;;4954003;28;218708;-67
2023/07/11 08:05:37;;;;;;;9.95;3.30;;;26.60;95.70;;;;;;5033968;28;20056;-68
2023/07/11 08:08:04;;;;;;;9.45;3.30;;;26.80;95.80;;;;;;4974132;28;221748;-69
2023/07/11 08:10:32;;;;;;;11.50;3.65;;;26.90;95.70;;;;;;5028007;28;20064;-68
2023/07/11 08:12:58;;;;;;;11.10;2.88;;;27.00;95.30;;;;;;4982449;28;211674;-68
2023/07/11 08:15:25;;;;;;;11.27;3.50;;;27.30;95.20;;;;;;5034074;28;20056;-69
2023/07/11 08:17:51;;;;;;;11.40;3.10;;;27.40;94.80;;;;;;4933241;28;1225457;-68
2023/07/11 08:20:17;;;;;;;9.85;3.17;;;27.40;94.90;;;;;;5011108;28;20543;-69
2023/07/11 08:22:43;;;;;;;8.85;2.60;;;27.60;94.10;;;;;;4959628;28;205114;-68
2023/07/11 08:25:11;;;;;;;14.02;3.05;;;27.50;94.70;;;;;;5010002;28;20060;-68
2023/07/11 08:27:38;;;;;;;9.63;2.88;;;27.40;94.40;;;;;;4971202;28;207919;-68
2023/07/11 08:30:05;;;;;;;11.43;2.80;;;27.60;94.20;;;;;;5024684;28;20518;-68
2023/07/11 08:32:31;;;;;;;9.98;2.80;;;27.90;93.70;;;;;;4970915;28;211018;-69
2023/07/11 08:34:57;;;;;;;10.73;3.20;;;28.10;93.80;;;;;;5018976;28;20060;-67
2023/07/11 08:37:23;;;;;;;9.98;2.88;;;28.10;93.60;;;;;;4947674;28;208140;-67
2023/07/11 08:39:49;;;;;;;15.23;2.97;;;28.10;93.40;;;;;;5008300;28;21957;-68
2023/07/11 08:42:35;;;;;;;12.48;3.00;;;28.20;93.40;;;;;;4953931;28;212099;-68
2023/07/11 08:45:07;;;;;;;9.70;2.78;;;28.10;93.30;;;;;;4986873;28;20053;-68
2023/07/11 08:47:39;;;;;;;10.57;2.88;;;28.10;93.20;;;;;;4953733;28;219626;-68
2023/07/11 08:50:19;;;;;;;10.52;2.90;;;28.50;93.10;;;;;;4998697;28;20045;-68
2023/07/11 08:52:50;;;;;;;11.07;2.63;;;28.50;93.10;;;;;;4950638;28;211503;-69
2023/07/11 08:55:30;;;;;;;10.02;2.60;;;28.80;93.10;;;;;;4995591;28;20046;-68
2023/07/11 08:58:15;;;;;;;10.02;2.30;;;29.10;92.80;;;;;;4949484;28;212499;-70
2023/07/11 09:00:47;;;;;;;10.90;2.38;;;29.40;91.10;;;;;;4996446;28;20054;-67
2023/07/11 09:03:30;;;;;;;10.82;2.22;;;29.30;91.70;;;;;;4953133;28;243373;-69
2023/07/11 09:06:05;;;;;;;8.63;2.00;;;29.20;90.50;;;;;;5004805;28;20066;-68
2023/07/11 09:08:32;;;;;;;8.45;2.08;;;29.50;90.40;;;;;;4966754;28;215797;-68
2023/07/11 09:11:22;;;;;;;8.50;2.00;;;29.70;90.70;;;;;;5000550;28;20050;-67
2023/07/11 09:14:20;;;;;;;7.38;2.00;;;29.60;89.20;;;;;;4958432;28;212996;-69
2023/07/11 09:16:49;;;;;;;8.23;2.07;;;29.50;89.10;;;;;;4946012;28;216563;-68
2023/07/11 09:19:27;;;;;;;8.50;2.00;;;29.20;89.50;;;;;;4998171;28;20053;-68
2023/07/11 09:22:20;;;;;;;8.48;1.92;;;29.60;89.40;;;;;;4957658;28;206410;-68
2023/07/11 09:25:18;;;;;;;9.90;2.20;;;29.50;88.40;;;;;;5001052;28;20054;-68
2023/07/11 09:27:54;;;;;;;8.55;1.90;;;29.80;89.10;;;;;;4958056;28;221479;-67
2023/07/11 09:30:34;;;;;;;8.07;1.90;;;29.90;88.10;;;;;;4994259;28;20622;-66
2023/07/11 09:33:20;;;;;;;7.35;1.90;;;30.10;88.30;;;;;;4938347;28;182030;-68
2023/07/11 09:35:47;;;;;;;7.68;1.90;;;30.40;86.40;;;;;;5011132;28;20061;-68
2023/07/11 09:38:26;;;;;;;8.98;2.20;;;29.50;88.00;;;;;;4951111;28;214226;-68
2023/07/11 09:41:00;;;;;;;9.45;1.95;;;29.80;87.10;;;;;;5007669;28;20060;-68
2023/07/11 09:43:27;;;;;;;12.63;1.98;;;29.70;87.70;;;;;;4957379;28;231478;-68
2023/07/11 09:45:53;;;;;;;12.70;2.00;;;29.50;87.50;;;;;;5024103;28;20049;-68
2023/07/11 09:48:40;;;;;;;9.18;2.10;;;29.60;87.90;;;;;;4982837;28;221597;-69
2023/07/11 09:51:36;;;;;;;8.00;2.03;;;29.90;87.60;;;;;;5008024;28;20042;-69
2023/07/11 09:54:15;;;;;;;9.50;2.10;;;29.90;87.70;;;;;;4933577;28;51619;-68
2023/07/11 09:56:47;;;;;;;9.35;2.10;;;29.60;86.70;;;;;;4938679;28;210805;-67
2023/07/11 09:59:18;;;;;;;8.82;2.15;;;29.60;87.20;;;;;;4986616;28;20058;-69
2023/07/11 10:01:50;;;;;;;8.97;2.33;;;29.30;86.90;;;;;;4948240;28;223970;-67
2023/07/11 10:04:25;;;;;;;9.52;2.20;;;29.00;87.90;;;;;;5024044;28;20054;-68
2023/07/11 10:07:02;;;;;;;8.60;2.03;;;29.70;87.90;;;;;;4966289;28;237134;-67
2023/07/11 10:09:33;;;;;;;9.00;2.20;;;29.70;87.80;;;;;;5004609;28;20050;-68
2023/07/11 10:12:04;;;;;;;8.45;2.40;;;30.00;87.20;;;;;;4956063;28;206160;-67
2023/07/11 10:14:38;;;;;;;11.02;2.55;;;30.50;86.60;;;;;;5023099;28;20050;-68
2023/07/11 10:17:21;;;;;;;9.38;2.40;;;30.70;87.30;;;;;;4953582;28;216067;-69
2023/07/11 10:19:56;;;;;;;9.38;2.42;;;31.10;86.50;;;;;;5008954;28;20054;-68
2023/07/11 10:22:29;;;;;;;10.40;2.10;;;31.30;86.30;;;;;;4964341;28;235014;-69
2023/07/11 10:25:11;;;;;;;10.80;2.17;;;31.40;86.60;;;;;;5035201;28;20058;-67
2023/07/11 10:27:38;;;;;;;11.50;2.42;;;31.70;86.80;;;;;;4971044;28;214168;-68
2023/07/11 10:30:05;;;;;;;9.35;2.08;;;32.20;86.50;;;;;;5008862;28;20054;-68
2023/07/11 10:32:48;;;;;;;9.57;2.33;;;32.40;86.10;;;;;;4948337;28;229832;-68
2023/07/11 10:35:21;;;;;;;7.93;2.20;;;32.90;84.50;;;;;;4995343;28;20052;-69
2023/07/11 10:37:56;;;;;;;8.23;2.17;;;32.90;85.40;;;;;;4950696;28;215782;-68
2023/07/11 10:40:31;;;;;;;10.13;2.15;;;32.90;83.30;;;;;;4996125;28;20052;-67
2023/07/11 10:43:27;;;;;;;12.40;2.40;;;32.70;84.30;;;;;;4938996;28;214085;-68
2023/07/11 10:46:00;;;;;;;7.90;1.90;;;32.10;84.40;;;;;;5001609;28;20055;-69
2023/07/11 10:48:32;;;;;;;9.68;1.90;;;32.10;84.90;;;;;;4920987;28;212414;-68
2023/07/11 10:51:03;;;;;;;8.75;1.73;;;32.10;83.70;;;;;;5007414;28;21991;-68
2023/07/11 10:53:49;;;;;;;10.45;1.80;;;32.10;82.70;;;;;;4963464;28;210622;-68
2023/07/11 10:56:23;;;;;;;11.18;2.08;;;32.00;83.70;;;;;;4998313;28;20041;-68
2023/07/11 10:58:50;;;;;;;9.60;1.80;;;31.90;84.20;;;;;;4924225;28;220128;-68
2023/07/11 11:01:36;;;;;;;9.25;1.90;;;31.10;84.00;;;;;;5001822;28;20057;-70
2023/07/11 11:04:41;;;;;;;8.15;1.88;;;31.30;83.40;;;;;;4961295;28;46540;-68
2023/07/11 11:07:12;;;;;;;9.18;1.90;;;31.40;82.30;;;;;;4950528;28;206658;-69
2023/07/11 11:10:06;;;;;;;11.70;1.90;;;31.50;82.90;;;;;;5016793;28;20372;-69
2023/07/11 11:12:55;;;;;;;10.07;1.77;;;31.10;81.30;;;;;;4933975;28;228860;-67
2023/07/11 11:15:49;;;;;;;11.27;2.00;;;31.00;82.80;;;;;;4994655;28;20033;-68
2023/07/11 11:18:27;;;;;;;9.15;1.80;;;31.10;82.50;;;;;;4957582;28;208919;-67
2023/07/11 11:21:28;;;;;;;7.35;1.75;;;31.40;82.30;;;;;;5005707;28;20529;-66
2023/07/11 11:24:16;;;;;;;13.05;2.33;;;31.00;80.20;;;;;;4941891;28;248964;-67
2023/07/11 11:27:10;;;;;;;9.73;1.75;;;30.80;80.40;;;;;;4949646;28;211923;-68
2023/07/11 11:29:59;;;;;;;11.18;2.38;;;30.40;81.50;;;;;;5023692;28;20057;-68
2023/07/11 11:32:37;;;;;;;13.00;2.10;;;31.00;80.40;;;;;;4972837;28;127257;-69
2023/07/11 11:35:22;;;;;;;9.23;1.98;;;31.30;81.00;;;;;;5016526;28;20053;-68
2023/07/11 11:38:06;;;;;;;11.15;1.95;;;31.40;80.20;;;;;;4968078;28;213196;-68
2023/07/11 11:40:37;;;;;;;8.88;2.08;;;31.20;79.50;;;;;;5028616;28;20064;-67
2023/07/11 11:43:11;;;;;;;9.30;2.17;;;30.80;79.90;;;;;;4955455;28;210846;-67
2023/07/11 11:45:39;;;;;;;8.43;2.08;;;31.30;80.90;;;;;;5020485;28;20057;-67
2023/07/11 11:48:14;;;;;;;9.85;2.05;;;31.50;79.90;;;;;;4975397;28;189109;-69
2023/07/11 11:50:41;;;;;;;10.70;2.08;;;31.80;79.50;;;;;;5031824;28;20159;-68
2023/07/11 11:53:20;;;;;;;11.45;2.15;;;31.40;80.20;;;;;;4962477;28;255523;-67
2023/07/11 11:56:05;;;;;;;7.35;2.00;;;31.50;80.30;;;;;;5009021;28;20049;-68
2023/07/11 11:58:34;;;;;;;7.47;1.77;;;31.80;79.70;;;;;;4937469;28;246643;-68
2023/07/11 12:01:00;;;;;;;9.45;2.13;;;32.30;80.00;;;;;;5025648;28;20069;-69
2023/07/11 12:03:34;;;;;;;8.25;1.83;;;32.70;79.60;;;;;;4960102;28;219286;-68
2023/07/11 12:06:03;;;;;;;11.95;2.10;;;32.00;79.00;;;;;;5006227;28;20037;-68
2023/07/11 12:08:31;;;;;;;10.77;2.40;;;31.40;80.40;;;;;;4968669;28;212344;-68
2023/07/11 12:11:04;;;;;;;8.93;2.10;;;31.10;80.70;;;;;;4999859;28;20492;-69
2023/07/11 12:13:31;;;;;;;13.77;2.10;;;31.00;80.30;;;;;;4935419;28;215121;-69
2023/07/11 12:16:06;;;;;;;10.60;2.33;;;31.10;80.40;;;;;;5003442;28;20050;-68
2023/07/11 12:18:44;;;;;;;8.13;2.00;;;31.40;80.80;;;;;;4944118;28;226614;-69
2023/07/11 12:21:14;;;;;;;11.50;2.15;;;30.70;79.90;;;;;;5018646;28;20050;-69
2023/07/11 12:23:46;;;;;;;12.67;2.07;;;30.60;81.30;;;;;;4950550;28;182326;-69
2023/07/11 12:26:30;;;;;;;8.27;1.73;;;31.10;81.20;;;;;;5004735;28;20096;-69
2023/07/11 12:29:49;;;;;;;7.72;2.17;;;31.10;80.30;;;;;;4957101;28;100551;-69
2023/07/11 12:32:33;;;;;;;9.27;1.95;;;31.10;80.10;;;;;;4958533;28;210378;-68
2023/07/11 12:35:05;;;;;;;10.05;2.00;;;31.30;80.50;;;;;;5002431;28;20053;-69
2023/07/11 12:37:59;;;;;;;16.10;2.65;;;31.60;80.10;;;;;;4948336;28;245376;-68
2023/07/11 12:40:48;;;;;;;9.00;1.90;;;31.70;80.20;;;;;;5025614;28;20053;-68
2023/07/11 12:43:33;;;;;;;9.25;1.80;;;31.10;79.60;;;;;;4941523;28;216079;-68
2023/07/11 12:46:11;;;;;;;8.63;1.90;;;31.00;80.50;;;;;;5008275;28;20045;-69
2023/07/11 12:48:43;;;;;;;11.50;2.28;;;31.30;80.80;;;;;;4969175;28;163705;-69
2023/07/11 12:51:29;;;;;;;9.50;2.47;;;31.60;80.40;;;;;;4999185;28;20057;-69
2023/07/11 12:54:18;;;;;;;12.57;2.05;;;31.60;80.00;;;;;;4964152;28;23501;-69